sensor_id;sensor_type;location;lat;lon;timestamp;pressure;altitude;pressure_sealevel;temperature;humidity
60817;BME280;51921;51.518;-3.188;2023-02-15T00:00:17;102171.44;;;0.41;100.00
60817;BME280;51921;51.518;-3.188;2023-02-15T00:02:37;102164.53;;;-0.35;100.00
60817;BME280;51921;51.518;-3.188;2023-02-15T00:05:02;102157.60;;;0.53;100.00
60817;BME280;51921;51.518;-3.188;2023-02-15T00:07:27;102156.15;;;0.42;100.00
60817;BME280;51921;51.518;-3.188;2023-02-15T00:09:54;102152.35;;;-0.54;100.00
60817;BME280;51921;51.518;-3.188;2023-02-15T00:12:18;102149.84;;;0.40;100.00
60817;BME280;51921;51.518;-3.188;2023-02-15T00:14:44;102149.63;;;0.45;100.00
60817;BME280;51921;51.518;-3.188;2023-02-15T00:17:09;102149.11;;;1.52;100.00
60817;BME280;51921;51.518;-3.188;2023-02-15T00:19:34;102140.47;;;2.61;100.00
60817;BME280;51921;51.518;-3.188;2023-02-15T00:21:59;102138.91;;;3.55;97.29
60817;BME280;51921;51.518;-3.188;2023-02-15T00:24:25;102140.97;;;4.72;91.73
60817;BME280;51921;51.518;-3.188;2023-02-15T00:26:51;102143.96;;;4.98;86.01
60817;BME280;51921;51.518;-3.188;2023-02-15T00:29:18;102148.25;;;5.27;83.84
60817;BME280;51921;51.518;-3.188;2023-02-15T00:31:41;102146.90;;;4.37;83.59
60817;BME280;51921;51.518;-3.188;2023-02-15T00:34:11;102145.97;;;4.53;84.22
60817;BME280;51921;51.518;-3.188;2023-02-15T00:36:32;102148.73;;;3.37;86.72
60817;BME280;51921;51.518;-3.188;2023-02-15T00:38:58;102140.81;;;2.30;95.52
60817;BME280;51921;51.518;-3.188;2023-02-15T00:41:23;102137.86;;;1.80;98.26
60817;BME280;51921;51.518;-3.188;2023-02-15T00:43:53;102135.17;;;2.57;91.08
60817;BME280;51921;51.518;-3.188;2023-02-15T00:46:14;102133.06;;;2.17;94.77
60817;BME280;51921;51.518;-3.188;2023-02-15T00:48:39;102127.23;;;1.94;100.00
60817;BME280;51921;51.518;-3.188;2023-02-15T00:51:04;102125.82;;;3.71;91.03
60817;BME280;51921;51.518;-3.188;2023-02-15T00:53:30;102120.93;;;4.05;85.15
60817;BME280;51921;51.518;-3.188;2023-02-15T00:55:57;102117.94;;;2.91;92.85
60817;BME280;51921;51.518;-3.188;2023-02-15T00:58:26;102115.60;;;3.75;87.97
60817;BME280;51921;51.518;-3.188;2023-02-15T01:00:47;102116.76;;;3.67;84.68
60817;BME280;51921;51.518;-3.188;2023-02-15T01:03:13;102116.63;;;3.74;85.88
60817;BME280;51921;51.518;-3.188;2023-02-15T01:05:38;102115.04;;;3.89;84.13
60817;BME280;51921;51.518;-3.188;2023-02-15T01:08:04;102114.05;;;4.17;80.64
60817;BME280;51921;51.518;-3.188;2023-02-15T01:10:30;102117.91;;;4.40;80.45
60817;BME280;51921;51.518;-3.188;2023-02-15T01:12:55;102113.34;;;1.42;86.95
60817;BME280;51921;51.518;-3.188;2023-02-15T01:15:20;102111.42;;;2.14;94.60
60817;BME280;51921;51.518;-3.188;2023-02-15T01:17:46;102106.01;;;1.12;98.24
60817;BME280;51921;51.518;-3.188;2023-02-15T01:20:12;102100.61;;;2.53;92.33
60817;BME280;51921;51.518;-3.188;2023-02-15T01:22:37;102103.79;;;1.69;95.71
60817;BME280;51921;51.518;-3.188;2023-02-15T01:25:03;102104.40;;;3.86;86.33
60817;BME280;51921;51.518;-3.188;2023-02-15T01:27:28;102103.58;;;2.92;89.54
60817;BME280;51921;51.518;-3.188;2023-02-15T01:29:53;102103.31;;;3.01;86.01
60817;BME280;51921;51.518;-3.188;2023-02-15T01:32:19;102101.58;;;2.88;85.60
60817;BME280;51921;51.518;-3.188;2023-02-15T01:34:45;102096.39;;;0.52;95.49
60817;BME280;51921;51.518;-3.188;2023-02-15T01:37:10;102094.37;;;2.76;93.55
60817;BME280;51921;51.518;-3.188;2023-02-15T01:39:36;102083.02;;;2.73;90.74
60817;BME280;51921;51.518;-3.188;2023-02-15T01:42:01;102081.81;;;3.17;88.64
60817;BME280;51921;51.518;-3.188;2023-02-15T01:46:53;102078.58;;;3.36;81.89
60817;BME280;51921;51.518;-3.188;2023-02-15T01:49:21;102082.94;;;2.33;89.03
60817;BME280;51921;51.518;-3.188;2023-02-15T01:51:45;102075.36;;;2.25;89.49
60817;BME280;51921;51.518;-3.188;2023-02-15T01:54:11;102069.05;;;1.36;90.01
60817;BME280;51921;51.518;-3.188;2023-02-15T01:56:35;102062.21;;;1.30;94.83
60817;BME280;51921;51.518;-3.188;2023-02-15T01:59:02;102053.92;;;0.99;98.15
60817;BME280;51921;51.518;-3.188;2023-02-15T02:01:25;102051.71;;;2.80;93.75
60817;BME280;51921;51.518;-3.188;2023-02-15T02:03:57;102051.81;;;3.45;85.75
60817;BME280;51921;51.518;-3.188;2023-02-15T02:06:15;102054.74;;;2.83;87.07
60817;BME280;51921;51.518;-3.188;2023-02-15T02:08:40;102055.58;;;3.61;83.22
60817;BME280;51921;51.518;-3.188;2023-02-15T02:11:10;102049.41;;;2.30;85.04
60817;BME280;51921;51.518;-3.188;2023-02-15T02:13:31;102045.14;;;2.24;87.22
60817;BME280;51921;51.518;-3.188;2023-02-15T02:16:00;102040.54;;;1.46;91.09
60817;BME280;51921;51.518;-3.188;2023-02-15T02:18:32;102039.57;;;1.67;91.07
60817;BME280;51921;51.518;-3.188;2023-02-15T02:21:01;102035.52;;;3.11;87.69
60817;BME280;51921;51.518;-3.188;2023-02-15T02:23:24;102034.51;;;2.67;87.32
60817;BME280;51921;51.518;-3.188;2023-02-15T02:28:13;102031.81;;;4.68;78.44
60817;BME280;51921;51.518;-3.188;2023-02-15T02:30:49;102024.17;;;4.52;76.83
60817;BME280;51921;51.518;-3.188;2023-02-15T02:33:07;102017.82;;;3.96;76.01
60817;BME280;51921;51.518;-3.188;2023-02-15T02:35:23;102018.05;;;4.08;75.54
60817;BME280;51921;51.518;-3.188;2023-02-15T02:37:51;102010.52;;;2.58;81.89
60817;BME280;51921;51.518;-3.188;2023-02-15T02:40:15;102005.37;;;3.81;78.10
60817;BME280;51921;51.518;-3.188;2023-02-15T02:42:39;101991.38;;;2.70;80.89
60817;BME280;51921;51.518;-3.188;2023-02-15T02:45:05;101989.97;;;3.36;79.36
60817;BME280;51921;51.518;-3.188;2023-02-15T02:47:30;101983.95;;;2.66;80.83
60817;BME280;51921;51.518;-3.188;2023-02-15T02:49:57;101986.07;;;3.30;80.48
60817;BME280;51921;51.518;-3.188;2023-02-15T02:52:36;101985.56;;;3.55;78.18
60817;BME280;51921;51.518;-3.188;2023-02-15T02:54:42;101979.39;;;3.91;77.04
60817;BME280;51921;51.518;-3.188;2023-02-15T02:57:08;101965.30;;;1.65;87.63
60817;BME280;51921;51.518;-3.188;2023-02-15T02:59:38;101960.38;;;2.63;86.00
60817;BME280;51921;51.518;-3.188;2023-02-15T03:02:02;101961.98;;;4.00;79.30
60817;BME280;51921;51.518;-3.188;2023-02-15T03:04:28;101955.38;;;0.48;89.98
60817;BME280;51921;51.518;-3.188;2023-02-15T03:06:52;101957.05;;;1.11;98.03
60817;BME280;51921;51.518;-3.188;2023-02-15T03:09:19;101957.87;;;0.69;97.69
60817;BME280;51921;51.518;-3.188;2023-02-15T03:11:43;101953.92;;;0.77;100.00
60817;BME280;51921;51.518;-3.188;2023-02-15T03:14:06;101954.16;;;0.66;100.00
60817;BME280;51921;51.518;-3.188;2023-02-15T03:16:31;101948.12;;;3.81;88.87
60817;BME280;51921;51.518;-3.188;2023-02-15T03:19:01;101948.84;;;0.12;99.30
60817;BME280;51921;51.518;-3.188;2023-02-15T03:21:29;101945.64;;;0.47;100.00
60817;BME280;51921;51.518;-3.188;2023-02-15T03:23:51;101938.71;;;2.26;99.14
60817;BME280;51921;51.518;-3.188;2023-02-15T03:26:15;101928.95;;;2.69;92.17
60817;BME280;51921;51.518;-3.188;2023-02-15T03:28:43;101933.20;;;3.87;87.32
60817;BME280;51921;51.518;-3.188;2023-02-15T03:31:06;101933.01;;;2.73;89.09
60817;BME280;51921;51.518;-3.188;2023-02-15T03:33:30;101932.68;;;2.83;86.58
60817;BME280;51921;51.518;-3.188;2023-02-15T03:36:01;101931.53;;;2.61;86.60
60817;BME280;51921;51.518;-3.188;2023-02-15T03:38:27;101932.52;;;3.97;80.11
60817;BME280;51921;51.518;-3.188;2023-02-15T03:40:47;101934.19;;;3.80;80.58
60817;BME280;51921;51.518;-3.188;2023-02-15T03:43:16;101932.37;;;4.49;77.24
60817;BME280;51921;51.518;-3.188;2023-02-15T03:45:38;101928.22;;;3.03;79.02
60817;BME280;51921;51.518;-3.188;2023-02-15T03:48:05;101933.50;;;4.55;76.88
60817;BME280;51921;51.518;-3.188;2023-02-15T03:50:31;101924.50;;;1.91;81.39
60817;BME280;51921;51.518;-3.188;2023-02-15T03:52:55;101919.50;;;2.46;88.65
60817;BME280;51921;51.518;-3.188;2023-02-15T03:55:20;101918.11;;;3.19;81.82
60817;BME280;51921;51.518;-3.188;2023-02-15T03:57:44;101915.67;;;3.47;80.52
60817;BME280;51921;51.518;-3.188;2023-02-15T04:00:13;101913.12;;;2.59;84.29
60817;BME280;51921;51.518;-3.188;2023-02-15T04:02:39;101914.51;;;4.04;79.54
60817;BME280;51921;51.518;-3.188;2023-02-15T04:05:00;101913.38;;;4.76;74.68
60817;BME280;51921;51.518;-3.188;2023-02-15T04:07:26;101912.27;;;3.69;76.15
60817;BME280;51921;51.518;-3.188;2023-02-15T04:09:51;101901.84;;;0.97;85.85
60817;BME280;51921;51.518;-3.188;2023-02-15T04:12:17;101900.11;;;-0.40;100.00
60817;BME280;51921;51.518;-3.188;2023-02-15T04:14:42;101895.03;;;-0.11;100.00
60817;BME280;51921;51.518;-3.188;2023-02-15T04:17:08;101891.63;;;1.08;100.00
60817;BME280;51921;51.518;-3.188;2023-02-15T04:19:34;101892.72;;;0.03;100.00
60817;BME280;51921;51.518;-3.188;2023-02-15T04:21:59;101889.36;;;0.89;94.85
60817;BME280;51921;51.518;-3.188;2023-02-15T04:24:24;101894.10;;;-0.47;100.00
60817;BME280;51921;51.518;-3.188;2023-02-15T04:26:50;101894.70;;;1.17;100.00
60817;BME280;51921;51.518;-3.188;2023-02-15T04:29:15;101883.25;;;2.30;88.26
60817;BME280;51921;51.518;-3.188;2023-02-15T04:31:40;101885.73;;;2.39;88.37
60817;BME280;51921;51.518;-3.188;2023-02-15T04:34:06;101884.35;;;2.11;85.96
60817;BME280;51921;51.518;-3.188;2023-02-15T04:36:31;101895.29;;;2.99;87.16
60817;BME280;51921;51.518;-3.188;2023-02-15T04:38:57;101901.14;;;2.23;87.22
60817;BME280;51921;51.518;-3.188;2023-02-15T04:41:22;101901.00;;;2.47;88.36
60817;BME280;51921;51.518;-3.188;2023-02-15T04:43:48;101888.52;;;2.41;83.64
60817;BME280;51921;51.518;-3.188;2023-02-15T04:46:14;101881.64;;;3.28;82.67
60817;BME280;51921;51.518;-3.188;2023-02-15T04:48:39;101876.29;;;3.63;78.95
60817;BME280;51921;51.518;-3.188;2023-02-15T04:51:05;101877.51;;;3.31;78.87
60817;BME280;51921;51.518;-3.188;2023-02-15T04:53:29;101876.66;;;2.37;85.94
60817;BME280;51921;51.518;-3.188;2023-02-15T04:55:55;101886.15;;;2.77;82.14
60817;BME280;51921;51.518;-3.188;2023-02-15T04:58:21;101884.36;;;3.53;78.99
60817;BME280;51921;51.518;-3.188;2023-02-15T05:00:46;101882.69;;;2.24;82.90
60817;BME280;51921;51.518;-3.188;2023-02-15T05:03:11;101886.11;;;2.41;81.15
60817;BME280;51921;51.518;-3.188;2023-02-15T05:05:36;101877.22;;;2.17;81.60
60817;BME280;51921;51.518;-3.188;2023-02-15T05:08:02;101878.48;;;2.62;83.77
60817;BME280;51921;51.518;-3.188;2023-02-15T05:10:27;101875.01;;;2.25;83.14
60817;BME280;51921;51.518;-3.188;2023-02-15T05:12:53;101882.69;;;3.91;78.27
60817;BME280;51921;51.518;-3.188;2023-02-15T05:15:18;101884.20;;;3.66;76.66
60817;BME280;51921;51.518;-3.188;2023-02-15T05:17:44;101883.06;;;4.42;74.08
60817;BME280;51921;51.518;-3.188;2023-02-15T05:20:10;101881.60;;;3.95;74.02
60817;BME280;51921;51.518;-3.188;2023-02-15T05:22:35;101880.80;;;4.27;74.57
60817;BME280;51921;51.518;-3.188;2023-02-15T05:25:00;101874.57;;;2.75;75.57
60817;BME280;51921;51.518;-3.188;2023-02-15T05:27:25;101878.43;;;4.31;73.65
60817;BME280;51921;51.518;-3.188;2023-02-15T05:29:50;101876.42;;;2.13;76.73
60817;BME280;51921;51.518;-3.188;2023-02-15T05:32:16;101875.23;;;1.33;82.11
60817;BME280;51921;51.518;-3.188;2023-02-15T05:34:41;101870.62;;;3.02;77.27
60817;BME280;51921;51.518;-3.188;2023-02-15T05:37:06;101870.93;;;2.37;80.51
60817;BME280;51921;51.518;-3.188;2023-02-15T05:39:32;101865.99;;;3.18;76.86
60817;BME280;51921;51.518;-3.188;2023-02-15T05:41:58;101863.42;;;2.71;77.82
60817;BME280;51921;51.518;-3.188;2023-02-15T05:44:23;101861.72;;;1.17;82.75
60817;BME280;51921;51.518;-3.188;2023-02-15T05:46:49;101866.55;;;1.49;84.84
60817;BME280;51921;51.518;-3.188;2023-02-15T05:49:14;101868.92;;;2.97;79.46
60817;BME280;51921;51.518;-3.188;2023-02-15T05:51:40;101870.00;;;2.45;77.00
60817;BME280;51921;51.518;-3.188;2023-02-15T05:54:05;101868.55;;;-0.12;90.68
60817;BME280;51921;51.518;-3.188;2023-02-15T05:56:31;101870.70;;;-0.92;100.00
60817;BME280;51921;51.518;-3.188;2023-02-15T05:58:56;101866.58;;;0.62;99.84
60817;BME280;51921;51.518;-3.188;2023-02-15T06:01:21;101869.75;;;1.55;93.52
60817;BME280;51921;51.518;-3.188;2023-02-15T06:03:47;101870.02;;;1.88;87.39
60817;BME280;51921;51.518;-3.188;2023-02-15T06:06:12;101859.02;;;2.19;85.55
60817;BME280;51921;51.518;-3.188;2023-02-15T06:08:38;101856.41;;;2.69;83.32
60817;BME280;51921;51.518;-3.188;2023-02-15T06:11:04;101858.88;;;2.31;84.46
60817;BME280;51921;51.518;-3.188;2023-02-15T06:13:29;101855.04;;;1.59;83.44
60817;BME280;51921;51.518;-3.188;2023-02-15T06:15:54;101852.26;;;1.47;89.39
60817;BME280;51921;51.518;-3.188;2023-02-15T06:18:20;101851.17;;;3.27;82.25
60817;BME280;51921;51.518;-3.188;2023-02-15T06:20:45;101846.92;;;2.11;81.94
60817;BME280;51921;51.518;-3.188;2023-02-15T06:23:10;101848.18;;;3.08;80.71
60817;BME280;51921;51.518;-3.188;2023-02-15T06:25:35;101859.38;;;2.71;80.07
60817;BME280;51921;51.518;-3.188;2023-02-15T06:28:01;101865.59;;;3.34;78.53
60817;BME280;51921;51.518;-3.188;2023-02-15T06:30:26;101862.48;;;1.66;81.80
60817;BME280;51921;51.518;-3.188;2023-02-15T06:32:52;101859.28;;;2.17;84.58
60817;BME280;51921;51.518;-3.188;2023-02-15T06:35:17;101866.44;;;2.76;80.61
60817;BME280;51921;51.518;-3.188;2023-02-15T06:37:45;101870.27;;;3.84;76.32
60817;BME280;51921;51.518;-3.188;2023-02-15T06:40:09;101865.68;;;1.93;79.81
60817;BME280;51921;51.518;-3.188;2023-02-15T06:42:34;101874.10;;;3.05;81.23
60817;BME280;51921;51.518;-3.188;2023-02-15T06:45:00;101870.75;;;1.06;82.91
60817;BME280;51921;51.518;-3.188;2023-02-15T06:47:26;101875.43;;;1.73;82.75
60817;BME280;51921;51.518;-3.188;2023-02-15T06:49:51;101882.98;;;1.34;89.98
60817;BME280;51921;51.518;-3.188;2023-02-15T06:52:17;101884.88;;;2.91;82.86
60817;BME280;51921;51.518;-3.188;2023-02-15T06:54:42;101885.64;;;2.73;80.14
60817;BME280;51921;51.518;-3.188;2023-02-15T06:57:08;101882.60;;;-0.04;94.34
60817;BME280;51921;51.518;-3.188;2023-02-15T06:59:33;101880.76;;;-0.18;99.17
60817;BME280;51921;51.518;-3.188;2023-02-15T07:01:59;101878.10;;;-1.54;100.00
60817;BME280;51921;51.518;-3.188;2023-02-15T07:04:25;101884.21;;;0.43;100.00
60817;BME280;51921;51.518;-3.188;2023-02-15T07:06:50;101889.83;;;0.51;100.00
60817;BME280;51921;51.518;-3.188;2023-02-15T07:09:16;101885.02;;;0.90;96.56
60817;BME280;51921;51.518;-3.188;2023-02-15T07:11:41;101883.11;;;1.25;93.52
60817;BME280;51921;51.518;-3.188;2023-02-15T07:14:06;101882.62;;;1.78;90.33
60817;BME280;51921;51.518;-3.188;2023-02-15T07:16:31;101882.42;;;2.04;86.73
60817;BME280;51921;51.518;-3.188;2023-02-15T07:18:57;101889.33;;;-1.18;100.00
60817;BME280;51921;51.518;-3.188;2023-02-15T07:21:22;101888.91;;;0.42;100.00
60817;BME280;51921;51.518;-3.188;2023-02-15T07:23:48;101886.13;;;1.30;100.00
60817;BME280;51921;51.518;-3.188;2023-02-15T07:26:13;101886.05;;;-0.96;100.00
60817;BME280;51921;51.518;-3.188;2023-02-15T07:28:44;101888.28;;;-0.76;100.00
60817;BME280;51921;51.518;-3.188;2023-02-15T07:31:05;101882.84;;;0.49;99.69
60817;BME280;51921;51.518;-3.188;2023-02-15T07:33:40;101886.08;;;-0.70;100.00
60817;BME280;51921;51.518;-3.188;2023-02-15T07:38:21;101880.58;;;-0.69;100.00
60817;BME280;51921;51.518;-3.188;2023-02-15T07:40:46;101880.21;;;-1.24;100.00
60817;BME280;51921;51.518;-3.188;2023-02-15T07:43:12;101880.20;;;-0.34;100.00
60817;BME280;51921;51.518;-3.188;2023-02-15T07:45:37;101869.17;;;1.32;100.00
60817;BME280;51921;51.518;-3.188;2023-02-15T07:48:02;101875.03;;;1.91;95.32
60817;BME280;51921;51.518;-3.188;2023-02-15T07:50:27;101878.86;;;2.16;91.28
60817;BME280;51921;51.518;-3.188;2023-02-15T07:52:53;101878.53;;;1.22;94.88
60817;BME280;51921;51.518;-3.188;2023-02-15T07:55:19;101880.80;;;1.75;92.07
60817;BME280;51921;51.518;-3.188;2023-02-15T07:57:45;101882.55;;;0.45;95.91
60817;BME280;51921;51.518;-3.188;2023-02-15T08:00:10;101892.72;;;2.15;99.30
60817;BME280;51921;51.518;-3.188;2023-02-15T08:02:34;101887.83;;;2.25;92.37
60817;BME280;51921;51.518;-3.188;2023-02-15T08:05:00;101891.02;;;2.72;90.14
60817;BME280;51921;51.518;-3.188;2023-02-15T08:07:27;101889.97;;;3.19;86.37
60817;BME280;51921;51.518;-3.188;2023-02-15T08:09:51;101881.76;;;2.35;85.70
60817;BME280;51921;51.518;-3.188;2023-02-15T08:12:16;101884.23;;;1.48;92.33
60817;BME280;51921;51.518;-3.188;2023-02-15T08:14:42;101890.32;;;-0.84;100.00
60817;BME280;51921;51.518;-3.188;2023-02-15T08:17:08;101892.52;;;2.77;99.82
60817;BME280;51921;51.518;-3.188;2023-02-15T08:19:33;101889.04;;;2.02;100.00
60817;BME280;51921;51.518;-3.188;2023-02-15T08:21:59;101884.74;;;2.54;96.69
60817;BME280;51921;51.518;-3.188;2023-02-15T08:24:24;101881.95;;;1.63;95.37
60817;BME280;51921;51.518;-3.188;2023-02-15T08:26:49;101879.35;;;3.05;95.17
60817;BME280;51921;51.518;-3.188;2023-02-15T08:29:16;101881.15;;;3.01;92.23
60817;BME280;51921;51.518;-3.188;2023-02-15T08:34:05;101873.71;;;4.16;85.79
60817;BME280;51921;51.518;-3.188;2023-02-15T08:36:30;101870.69;;;3.09;93.40
60817;BME280;51921;51.518;-3.188;2023-02-15T08:38:57;101876.48;;;3.79;92.75
60817;BME280;51921;51.518;-3.188;2023-02-15T08:41:23;101873.41;;;2.42;94.52
60817;BME280;51921;51.518;-3.188;2023-02-15T08:43:47;101874.93;;;4.51;99.69
60817;BME280;51921;51.518;-3.188;2023-02-15T08:46:12;101869.99;;;3.52;100.00
60817;BME280;51921;51.518;-3.188;2023-02-15T08:48:37;101866.95;;;4.01;97.69
60817;BME280;51921;51.518;-3.188;2023-02-15T08:51:08;101868.08;;;4.02;96.19
60817;BME280;51921;51.518;-3.188;2023-02-15T08:53:29;101868.52;;;4.69;96.24
60817;BME280;51921;51.518;-3.188;2023-02-15T08:55:56;101868.30;;;3.22;97.96
60817;BME280;51921;51.518;-3.188;2023-02-15T08:58:20;101868.44;;;2.13;100.00
60817;BME280;51921;51.518;-3.188;2023-02-15T09:00:46;101872.78;;;1.57;100.00
60817;BME280;51921;51.518;-3.188;2023-02-15T09:03:11;101871.62;;;3.34;100.00
60817;BME280;51921;51.518;-3.188;2023-02-15T09:05:37;101866.45;;;4.00;100.00
60817;BME280;51921;51.518;-3.188;2023-02-15T09:08:02;101861.64;;;6.06;100.00
60817;BME280;51921;51.518;-3.188;2023-02-15T09:10:28;101855.72;;;5.76;95.10
60817;BME280;51921;51.518;-3.188;2023-02-15T09:12:53;101851.65;;;7.36;86.95
60817;BME280;51921;51.518;-3.188;2023-02-15T09:15:18;101851.23;;;5.61;86.40
60817;BME280;51921;51.518;-3.188;2023-02-15T09:17:43;101857.21;;;7.66;84.26
60817;BME280;51921;51.518;-3.188;2023-02-15T09:20:09;101846.30;;;7.10;81.30
60817;BME280;51921;51.518;-3.188;2023-02-15T09:22:34;101845.18;;;6.01;83.05
60817;BME280;51921;51.518;-3.188;2023-02-15T09:25:00;101851.01;;;7.13;84.56
60817;BME280;51921;51.518;-3.188;2023-02-15T09:27:25;101852.96;;;7.55;82.40
60817;BME280;51921;51.518;-3.188;2023-02-15T09:29:51;101847.50;;;7.27;81.94
60817;BME280;51921;51.518;-3.188;2023-02-15T09:32:17;101844.26;;;7.07;86.54
60817;BME280;51921;51.518;-3.188;2023-02-15T09:34:42;101843.00;;;6.61;90.72
60817;BME280;51921;51.518;-3.188;2023-02-15T09:37:08;101842.40;;;7.61;87.47
60817;BME280;51921;51.518;-3.188;2023-02-15T09:39:33;101844.19;;;8.44;86.39
60817;BME280;51921;51.518;-3.188;2023-02-15T09:42:21;101844.28;;;7.15;91.07
60817;BME280;51921;51.518;-3.188;2023-02-15T09:44:33;101845.33;;;7.60;91.32
60817;BME280;51921;51.518;-3.188;2023-02-15T09:47:02;101851.53;;;7.08;94.96
60817;BME280;51921;51.518;-3.188;2023-02-15T09:51:58;101851.34;;;7.72;92.89
60817;BME280;51921;51.518;-3.188;2023-02-15T09:54:19;101848.01;;;6.91;99.47
60817;BME280;51921;51.518;-3.188;2023-02-15T09:56:32;101847.50;;;6.97;100.00
60817;BME280;51921;51.518;-3.188;2023-02-15T09:59:02;101845.26;;;6.56;100.00
60817;BME280;51921;51.518;-3.188;2023-02-15T10:01:29;101853.16;;;8.12;98.14
60817;BME280;51921;51.518;-3.188;2023-02-15T10:03:59;101851.05;;;6.91;100.00
60817;BME280;51921;51.518;-3.188;2023-02-15T10:06:28;101850.15;;;7.51;100.00
60817;BME280;51921;51.518;-3.188;2023-02-15T10:08:53;101840.00;;;6.26;100.00
60817;BME280;51921;51.518;-3.188;2023-02-15T10:11:15;101835.75;;;6.44;100.00
60817;BME280;51921;51.518;-3.188;2023-02-15T10:13:34;101844.84;;;6.54;100.00
60817;BME280;51921;51.518;-3.188;2023-02-15T10:18:33;101843.75;;;7.44;100.00
60817;BME280;51921;51.518;-3.188;2023-02-15T10:20:55;101846.37;;;7.71;99.59
60817;BME280;51921;51.518;-3.188;2023-02-15T10:23:28;101850.48;;;7.82;99.81
60817;BME280;51921;51.518;-3.188;2023-02-15T10:25:42;101843.06;;;8.80;93.48
60817;BME280;51921;51.518;-3.188;2023-02-15T10:28:05;101843.07;;;8.79;90.46
60817;BME280;51921;51.518;-3.188;2023-02-15T10:30:35;101845.12;;;9.18;89.22
60817;BME280;51921;51.518;-3.188;2023-02-15T10:33:00;101848.06;;;9.03;90.29
60817;BME280;51921;51.518;-3.188;2023-02-15T10:35:25;101846.67;;;9.71;86.83
60817;BME280;51921;51.518;-3.188;2023-02-15T10:37:55;101849.55;;;9.31;85.73
60817;BME280;51921;51.518;-3.188;2023-02-15T10:40:23;101851.46;;;9.69;87.05
60817;BME280;51921;51.518;-3.188;2023-02-15T10:42:46;101852.67;;;9.19;87.50
60817;BME280;51921;51.518;-3.188;2023-02-15T10:45:10;101851.69;;;10.12;83.57
60817;BME280;51921;51.518;-3.188;2023-02-15T10:47:37;101857.35;;;8.60;90.68
60817;BME280;51921;51.518;-3.188;2023-02-15T10:50:13;101856.39;;;9.19;84.30
60817;BME280;51921;51.518;-3.188;2023-02-15T10:52:26;101866.11;;;9.62;84.21
60817;BME280;51921;51.518;-3.188;2023-02-15T10:54:47;101860.49;;;9.86;82.85
60817;BME280;51921;51.518;-3.188;2023-02-15T10:57:15;101858.09;;;7.69;87.88
60817;BME280;51921;51.518;-3.188;2023-02-15T10:59:45;101849.09;;;8.62;89.16
60817;BME280;51921;51.518;-3.188;2023-02-15T11:02:04;101846.80;;;10.74;80.44
60817;BME280;51921;51.518;-3.188;2023-02-15T11:04:39;101849.16;;;10.30;78.67
60817;BME280;51921;51.518;-3.188;2023-02-15T11:06:52;101846.83;;;9.72;78.69
60817;BME280;51921;51.518;-3.188;2023-02-15T11:09:16;101846.87;;;8.84;92.13
60817;BME280;51921;51.518;-3.188;2023-02-15T11:11:42;101848.71;;;10.43;81.48
60817;BME280;51921;51.518;-3.188;2023-02-15T11:14:12;101837.50;;;10.47;80.04
60817;BME280;51921;51.518;-3.188;2023-02-15T11:16:33;101843.13;;;10.59;78.84
60817;BME280;51921;51.518;-3.188;2023-02-15T11:18:58;101845.94;;;9.73;81.29
60817;BME280;51921;51.518;-3.188;2023-02-15T11:21:24;101844.86;;;9.08;83.95
60817;BME280;51921;51.518;-3.188;2023-02-15T11:23:48;101846.29;;;9.79;83.56
60817;BME280;51921;51.518;-3.188;2023-02-15T11:26:26;101840.50;;;9.74;82.54
60817;BME280;51921;51.518;-3.188;2023-02-15T11:28:42;101837.68;;;9.14;85.43
60817;BME280;51921;51.518;-3.188;2023-02-15T11:31:12;101829.11;;;8.87;86.98
60817;BME280;51921;51.518;-3.188;2023-02-15T11:33:33;101826.13;;;9.26;87.80
60817;BME280;51921;51.518;-3.188;2023-02-15T11:36:00;101825.43;;;9.37;91.18
60817;BME280;51921;51.518;-3.188;2023-02-15T11:38:23;101828.16;;;8.79;91.42
60817;BME280;51921;51.518;-3.188;2023-02-15T11:40:48;101825.24;;;9.38;89.03
60817;BME280;51921;51.518;-3.188;2023-02-15T11:43:17;101827.63;;;9.95;85.48
60817;BME280;51921;51.518;-3.188;2023-02-15T11:45:41;101826.29;;;10.15;85.21
60817;BME280;51921;51.518;-3.188;2023-02-15T11:48:09;101824.38;;;9.27;87.36
60817;BME280;51921;51.518;-3.188;2023-02-15T11:50:31;101821.60;;;9.20;89.17
60817;BME280;51921;51.518;-3.188;2023-02-15T11:53:03;101819.36;;;9.76;84.87
60817;BME280;51921;51.518;-3.188;2023-02-15T11:55:22;101811.44;;;9.90;83.82
60817;BME280;51921;51.518;-3.188;2023-02-15T11:57:50;101806.85;;;11.34;78.38
60817;BME280;51921;51.518;-3.188;2023-02-15T12:00:16;101798.15;;;10.15;82.01
60817;BME280;51921;51.518;-3.188;2023-02-15T12:02:38;101801.11;;;10.08;83.41
60817;BME280;51921;51.518;-3.188;2023-02-15T12:05:05;101801.79;;;9.02;86.31
60817;BME280;51921;51.518;-3.188;2023-02-15T12:07:30;101800.95;;;9.06;87.81
60817;BME280;51921;51.518;-3.188;2023-02-15T12:10:00;101801.39;;;9.42;86.89
60817;BME280;51921;51.518;-3.188;2023-02-15T12:12:22;101793.17;;;10.11;85.21
60817;BME280;51921;51.518;-3.188;2023-02-15T12:14:48;101792.54;;;10.16;85.14
60817;BME280;51921;51.518;-3.188;2023-02-15T12:17:13;101782.62;;;10.22;83.55
60817;BME280;51921;51.518;-3.188;2023-02-15T12:19:38;101781.92;;;11.15;80.04
60817;BME280;51921;51.518;-3.188;2023-02-15T12:22:03;101779.74;;;10.35;81.64
60817;BME280;51921;51.518;-3.188;2023-02-15T12:24:30;101780.04;;;10.10;84.95
60817;BME280;51921;51.518;-3.188;2023-02-15T12:27:01;101777.08;;;9.46;87.85
60817;BME280;51921;51.518;-3.188;2023-02-15T12:29:23;101771.36;;;10.37;87.27
60817;BME280;51921;51.518;-3.188;2023-02-15T12:31:45;101773.82;;;9.10;91.52
60817;BME280;51921;51.518;-3.188;2023-02-15T12:34:13;101769.10;;;10.02;87.10
60817;BME280;51921;51.518;-3.188;2023-02-15T12:36:47;101773.21;;;10.69;84.20
60817;BME280;51921;51.518;-3.188;2023-02-15T12:39:05;101770.53;;;10.26;85.51
60817;BME280;51921;51.518;-3.188;2023-02-15T12:41:26;101771.38;;;10.39;83.54
60817;BME280;51921;51.518;-3.188;2023-02-15T12:44:03;101771.08;;;10.41;84.92
60817;BME280;51921;51.518;-3.188;2023-02-15T12:46:22;101776.92;;;10.25;84.11
60817;BME280;51921;51.518;-3.188;2023-02-15T12:48:42;101779.61;;;10.19;83.68
60817;BME280;51921;51.518;-3.188;2023-02-15T12:51:13;101779.54;;;10.46;83.08